createdAt,value
2017-07-15T00:00:25.993Z,30.43
2017-07-15T00:02:54.340Z,32.97
2017-07-15T00:05:22.728Z,32.67
2017-07-15T00:07:51.405Z,37.27
2017-07-15T00:10:19.751Z,32.63
2017-07-15T00:12:48.089Z,31.97
2017-07-15T00:15:17.592Z,37.70
2017-07-15T00:17:45.937Z,29.73
2017-07-15T00:20:14.289Z,29.40
2017-07-15T00:22:43.136Z,36.27
2017-07-15T00:25:11.473Z,26.80
2017-07-15T00:27:39.811Z,29.10
2017-07-15T00:30:08.473Z,32.57
2017-07-15T00:32:36.827Z,33.20
2017-07-15T00:35:05.188Z,28.43
2017-07-15T00:37:34.254Z,25.23
2017-07-15T00:40:02.583Z,27.33
2017-07-15T00:42:30.900Z,25.57
2017-07-15T00:45:00.279Z,25.83
2017-07-15T00:47:28.631Z,25.37
2017-07-15T00:49:56.957Z,34.50
2017-07-15T00:52:26.402Z,24.67
2017-07-15T00:54:54.746Z,29.70
2017-07-15T00:57:23.851Z,27.30
2017-07-15T00:59:52.770Z,31.33
2017-07-15T01:02:21.114Z,28.53
2017-07-15T01:04:49.462Z,27.77
2017-07-15T01:07:18.078Z,29.13
2017-07-15T01:09:46.436Z,24.13
2017-07-15T01:12:14.786Z,35.13
2017-07-15T01:14:43.520Z,23.10
2017-07-15T01:17:11.859Z,25.23
2017-07-15T01:19:40.196Z,28.33
2017-07-15T01:22:09.177Z,26.03
2017-07-15T01:24:37.515Z,30.83
2017-07-15T01:27:05.855Z,25.97
2017-07-15T01:29:34.476Z,26.27
2017-07-15T01:32:02.827Z,22.63
2017-07-15T01:34:31.171Z,30.50
2017-07-15T01:36:59.867Z,25.40
2017-07-15T01:39:28.230Z,30.70
2017-07-15T01:41:56.593Z,19.07
2017-07-15T01:44:25.562Z,19.63
2017-07-15T01:46:53.932Z,22.50
2017-07-15T01:49:22.252Z,26.63
2017-07-15T01:51:51.145Z,33.67
2017-07-15T01:54:19.503Z,27.07
2017-07-15T01:56:47.889Z,28.73
2017-07-15T01:59:16.554Z,19.40
2017-07-15T02:01:44.896Z,26.50
2017-07-15T02:04:13.237Z,25.13
2017-07-15T02:06:42.054Z,18.00
2017-07-15T02:09:10.404Z,20.63
2017-07-15T02:11:38.779Z,22.03
2017-07-15T02:14:07.703Z,24.43
2017-07-15T02:16:36.028Z,24.53
2017-07-15T02:19:04.378Z,26.93
2017-07-15T02:21:33.339Z,20.20
2017-07-15T02:24:01.713Z,20.90
2017-07-15T02:26:30.079Z,17.07
2017-07-15T02:28:59.095Z,18.03
2017-07-15T02:31:27.456Z,23.50
2017-07-15T02:33:55.802Z,27.00
2017-07-15T02:36:24.645Z,12.67
2017-07-15T02:38:52.973Z,19.70
2017-07-15T02:41:21.313Z,19.57
2017-07-15T02:43:50.207Z,19.63
2017-07-15T02:46:18.559Z,19.57
2017-07-15T02:48:47.895Z,21.67
2017-07-15T02:51:16.572Z,14.10
2017-07-15T02:53:44.924Z,27.20
2017-07-15T02:56:14.025Z,18.83
2017-07-15T02:58:43.476Z,20.40
2017-07-15T03:01:11.831Z,19.90
2017-07-15T03:03:40.171Z,23.70
2017-07-15T03:06:09.141Z,20.63
2017-07-15T03:08:37.529Z,22.27
2017-07-15T03:11:05.858Z,15.27
2017-07-15T03:13:34.753Z,25.47
2017-07-15T03:16:03.101Z,32.57
2017-07-15T03:18:32.202Z,15.90
2017-07-15T03:21:01.006Z,22.17
2017-07-15T03:23:29.329Z,18.50
2017-07-15T03:25:57.697Z,28.30
2017-07-15T03:28:26.358Z,23.67
2017-07-15T03:30:54.735Z,22.53
2017-07-15T03:33:23.092Z,17.10
2017-07-15T03:35:52.058Z,25.43
2017-07-15T03:38:20.407Z,28.23
2017-07-15T03:40:48.747Z,20.80
2017-07-15T03:43:17.533Z,16.33
2017-07-15T03:45:45.874Z,25.13
2017-07-15T03:48:14.198Z,17.07
2017-07-15T03:50:43.632Z,22.60
2017-07-15T03:53:11.961Z,21.70
2017-07-15T03:55:40.293Z,25.83
2017-07-15T03:58:09.031Z,30.67
2017-07-15T04:00:37.371Z,23.43
2017-07-15T04:03:05.712Z,23.73
2017-07-15T04:05:34.375Z,25.20
2017-07-15T04:08:02.710Z,15.93
2017-07-15T04:10:31.063Z,22.10
2017-07-15T04:12:59.919Z,27.00
2017-07-15T04:15:28.260Z,20.03
2017-07-15T04:17:56.626Z,22.50
2017-07-15T04:20:25.786Z,28.50
2017-07-15T04:22:54.143Z,18.00
2017-07-15T04:25:22.473Z,20.40
2017-07-15T04:27:51.241Z,21.13
2017-07-15T04:30:19.620Z,15.03
2017-07-15T04:32:48.719Z,17.77
2017-07-15T04:35:17.337Z,22.80
2017-07-15T04:37:45.692Z,23.87
2017-07-15T04:40:14.040Z,21.33
2017-07-15T04:42:42.954Z,28.30
2017-07-15T04:45:11.332Z,25.10
2017-07-15T04:47:40.413Z,32.87
2017-07-15T04:50:10.039Z,29.53
2017-07-15T04:52:38.366Z,23.13
2017-07-15T04:55:06.698Z,21.20
2017-07-15T04:57:35.473Z,21.90
2017-07-15T05:00:03.812Z,28.70
2017-07-15T05:02:32.131Z,26.37
2017-07-15T05:05:01.743Z,27.73
2017-07-15T05:07:30.109Z,23.00
2017-07-15T05:09:59.210Z,31.47
2017-07-15T05:12:28.692Z,22.73
2017-07-15T05:14:57.025Z,25.33
2017-07-15T05:17:25.362Z,26.00
2017-07-15T05:19:54.045Z,21.53
2017-07-15T05:22:22.374Z,21.23
2017-07-15T05:24:50.713Z,25.60
2017-07-15T05:27:20.543Z,25.67
2017-07-15T05:29:48.890Z,20.40
2017-07-15T05:32:17.237Z,25.50
2017-07-15T05:34:45.876Z,22.30
2017-07-15T05:37:14.985Z,23.53
2017-07-15T05:39:43.368Z,24.10
2017-07-15T05:42:12.047Z,17.10
2017-07-15T05:44:40.379Z,24.57
2017-07-15T05:47:08.724Z,19.57
2017-07-15T05:49:38.302Z,22.50
2017-07-15T05:52:06.655Z,27.07
2017-07-15T05:54:35.010Z,21.37
2017-07-15T05:57:03.692Z,18.60
2017-07-15T05:59:32.021Z,22.37
2017-07-15T06:02:00.350Z,18.60
2017-07-15T06:04:29.007Z,14.40
2017-07-15T06:06:57.348Z,18.47
2017-07-15T06:09:25.705Z,33.03
2017-07-15T06:11:54.506Z,25.63
2017-07-15T06:14:22.872Z,20.30
2017-07-15T06:16:51.229Z,23.60
2017-07-15T06:19:20.089Z,20.53
2017-07-15T06:21:48.444Z,18.10
2017-07-15T06:24:16.798Z,25.17
2017-07-15T06:26:45.730Z,22.17
2017-07-15T06:29:14.095Z,22.57
2017-07-15T06:31:42.436Z,20.50
2017-07-15T06:34:11.589Z,13.00
2017-07-15T06:36:39.922Z,16.87
2017-07-15T06:39:08.269Z,19.13
2017-07-15T06:41:36.970Z,13.23
2017-07-15T06:44:05.320Z,22.50
2017-07-15T06:46:33.667Z,16.90
2017-07-15T06:49:02.450Z,14.00
2017-07-15T06:51:30.834Z,19.20
2017-07-15T06:53:59.175Z,18.43
2017-07-15T06:56:28.152Z,17.53
2017-07-15T06:58:56.500Z,16.63
2017-07-15T07:01:25.627Z,10.73
2017-07-15T07:03:54.291Z,11.40
2017-07-15T07:06:23.404Z,14.27
2017-07-15T07:08:51.755Z,16.07
2017-07-15T07:11:20.385Z,23.23
2017-07-15T07:13:48.751Z,15.80
2017-07-15T07:16:17.091Z,12.40
2017-07-15T07:18:46.330Z,13.77
2017-07-15T07:21:14.662Z,16.10
2017-07-15T07:23:42.989Z,15.30
2017-07-15T07:26:11.677Z,22.13
2017-07-15T07:28:40.015Z,21.27
2017-07-15T07:31:08.335Z,15.03
2017-07-15T07:33:36.988Z,21.93
2017-07-15T07:36:05.334Z,10.33
2017-07-15T07:38:33.706Z,14.93
2017-07-15T07:41:02.591Z,11.17
2017-07-15T07:43:30.981Z,9.70
2017-07-15T07:45:59.301Z,10.37
2017-07-15T07:48:28.724Z,15.27
2017-07-15T07:50:57.077Z,10.33
2017-07-15T07:53:25.448Z,13.70
2017-07-15T07:55:54.070Z,11.80
2017-07-15T07:58:22.457Z,14.43
2017-07-15T08:00:50.795Z,15.67
2017-07-15T08:03:19.811Z,10.87
2017-07-15T08:05:48.155Z,10.77
2017-07-15T08:08:16.489Z,8.00
2017-07-15T08:10:45.283Z,11.87
2017-07-15T08:13:13.616Z,9.00
2017-07-15T08:15:41.972Z,13.23
2017-07-15T08:18:10.891Z,10.70
2017-07-15T08:20:39.215Z,9.90
2017-07-15T08:25:42.911Z,7.47
2017-07-15T08:28:11.278Z,6.30
2017-07-15T08:30:40.391Z,8.30
2017-07-15T08:33:09.150Z,5.30
2017-07-15T08:35:37.511Z,13.50
2017-07-15T08:38:05.845Z,7.03
2017-07-15T08:40:34.611Z,7.50
2017-07-15T08:43:02.978Z,10.20
2017-07-15T08:45:32.085Z,10.40
2017-07-15T08:48:00.797Z,6.47
2017-07-15T08:50:29.143Z,8.07
2017-07-15T08:52:57.936Z,4.70
2017-07-15T08:55:26.784Z,8.03
2017-07-15T08:57:55.128Z,4.63
2017-07-15T09:00:23.475Z,9.80
2017-07-15T09:02:52.370Z,8.80
2017-07-15T09:05:20.704Z,5.27
2017-07-15T09:07:49.046Z,6.10
2017-07-15T09:10:17.989Z,7.57
2017-07-15T09:12:46.343Z,12.43
2017-07-15T09:15:14.672Z,7.37
2017-07-15T09:17:44.297Z,5.77
2017-07-15T09:20:12.622Z,4.47
2017-07-15T09:22:40.950Z,8.80
2017-07-15T09:25:09.736Z,6.00
2017-07-15T09:27:38.080Z,19.27
2017-07-15T09:30:06.422Z,5.90
2017-07-15T09:32:35.621Z,4.77
2017-07-15T09:35:03.961Z,5.70
2017-07-15T09:37:32.286Z,4.23
2017-07-15T09:40:01.035Z,4.07
2017-07-15T09:42:29.375Z,5.40
2017-07-15T09:44:57.698Z,5.83
2017-07-15T09:47:26.410Z,12.53
2017-07-15T09:49:54.738Z,8.10
2017-07-15T09:52:23.063Z,3.70
2017-07-15T09:54:51.842Z,6.63
2017-07-15T09:57:20.175Z,5.53
2017-07-15T09:59:48.519Z,4.53
2017-07-15T10:02:17.166Z,12.63
2017-07-15T10:04:45.481Z,7.00
2017-07-15T10:07:13.903Z,4.70
2017-07-15T10:09:42.527Z,7.33
2017-07-15T10:12:10.868Z,5.17
2017-07-15T10:14:39.199Z,3.43
2017-07-15T10:17:08.121Z,13.93
2017-07-15T10:19:36.476Z,2.40
2017-07-15T10:22:04.816Z,2.60
2017-07-15T10:24:33.425Z,8.73
2017-07-15T10:27:01.803Z,6.00
2017-07-15T10:29:30.155Z,5.33
2017-07-15T10:31:59.159Z,7.37
2017-07-15T10:34:27.516Z,4.47
2017-07-15T10:36:56.628Z,5.50
2017-07-15T10:39:25.453Z,4.50
2017-07-15T10:41:53.816Z,3.90
2017-07-15T10:44:22.160Z,2.57
2017-07-15T10:46:50.798Z,4.50
2017-07-15T10:49:19.135Z,5.20
2017-07-15T10:51:47.486Z,7.03
2017-07-15T10:54:16.211Z,5.80
2017-07-15T10:56:44.555Z,7.50
2017-07-15T10:59:12.878Z,6.73
2017-07-15T11:01:41.858Z,4.77
2017-07-15T11:04:10.223Z,9.30
2017-07-15T11:06:38.578Z,3.00
2017-07-15T11:09:07.400Z,2.57
2017-07-15T11:11:35.820Z,2.80
2017-07-15T11:14:04.171Z,6.10
2017-07-15T11:16:32.848Z,4.10
2017-07-15T11:19:01.204Z,2.70
2017-07-15T11:21:29.560Z,2.77
2017-07-15T11:23:58.641Z,2.40
2017-07-15T11:26:27.010Z,6.30
2017-07-15T11:28:55.378Z,2.33
2017-07-15T11:31:24.148Z,2.20
2017-07-15T11:33:52.501Z,2.50
2017-07-15T11:36:20.834Z,2.13
2017-07-15T11:38:49.571Z,3.47
2017-07-15T11:41:17.903Z,2.63
2017-07-15T11:43:46.220Z,2.17
2017-07-15T11:46:15.758Z,2.33
2017-07-15T11:48:44.087Z,4.10
2017-07-15T11:51:12.430Z,3.63
2017-07-15T11:53:41.095Z,4.10
2017-07-15T11:56:09.456Z,2.13
2017-07-15T11:58:37.769Z,2.63
2017-07-15T12:01:06.533Z,4.50
2017-07-15T12:03:34.882Z,4.63
2017-07-15T12:06:03.220Z,2.30
2017-07-15T12:08:32.148Z,1.50
2017-07-15T12:11:00.519Z,1.90
2017-07-15T12:13:28.842Z,1.63
2017-07-15T12:15:58.303Z,2.50
2017-07-15T12:18:26.645Z,6.40
2017-07-15T12:20:54.978Z,1.97
2017-07-15T12:23:23.633Z,5.13
2017-07-15T12:25:51.972Z,1.97
2017-07-15T12:28:20.362Z,4.77
2017-07-15T12:30:49.360Z,2.20
2017-07-15T12:33:17.722Z,2.43
2017-07-15T12:35:46.063Z,2.80
2017-07-15T12:38:14.869Z,3.20
2017-07-15T12:40:43.212Z,3.47
2017-07-15T12:43:11.556Z,3.53
2017-07-15T12:45:40.461Z,3.47
2017-07-15T12:48:08.805Z,2.80
2017-07-15T12:50:37.924Z,6.77
2017-07-15T12:53:07.109Z,3.30
2017-07-15T12:55:35.462Z,4.20
2017-07-15T12:58:03.780Z,3.20
2017-07-15T13:00:32.597Z,3.70
2017-07-15T13:03:00.948Z,3.57
2017-07-15T13:05:29.315Z,5.00
2017-07-15T13:07:57.987Z,4.73
2017-07-15T13:10:26.333Z,4.70
2017-07-15T13:12:54.668Z,3.87
2017-07-15T13:15:23.659Z,3.93
2017-07-15T13:17:51.987Z,4.53
2017-07-15T13:20:20.525Z,7.40
2017-07-15T13:22:49.190Z,5.17
2017-07-15T13:25:18.296Z,3.10
2017-07-15T13:27:47.395Z,3.10
2017-07-15T13:30:16.795Z,3.30
2017-07-15T13:32:45.157Z,3.93
2017-07-15T13:35:13.508Z,2.70
2017-07-15T13:37:42.474Z,5.27
2017-07-15T13:40:10.810Z,4.27
2017-07-15T13:42:39.142Z,6.87
2017-07-15T13:45:07.928Z,2.40
2017-07-15T13:47:36.321Z,2.13
2017-07-15T13:50:04.651Z,2.80
2017-07-15T13:52:33.333Z,2.63
2017-07-15T13:55:01.671Z,3.17
2017-07-15T13:57:30.001Z,3.87
2017-07-15T13:59:59.001Z,3.10
2017-07-15T14:02:27.343Z,4.27
2017-07-15T14:04:55.695Z,5.63
2017-07-15T14:07:24.463Z,4.77
2017-07-15T14:09:52.799Z,2.53
2017-07-15T14:12:21.896Z,6.30
2017-07-15T14:14:51.280Z,5.77
2017-07-15T14:17:19.655Z,2.73
2017-07-15T14:19:48.017Z,3.00
2017-07-15T14:22:16.966Z,4.53
2017-07-15T14:24:45.282Z,8.37
2017-07-15T14:27:13.626Z,8.10
2017-07-15T14:29:42.267Z,5.57
2017-07-15T14:32:10.605Z,4.97
2017-07-15T14:34:38.950Z,8.73
2017-07-15T14:37:07.693Z,5.10
2017-07-15T14:39:36.043Z,3.30
2017-07-15T14:42:04.373Z,2.07
2017-07-15T14:44:33.316Z,4.90
2017-07-15T14:47:01.647Z,2.00
2017-07-15T14:49:30.001Z,2.10
2017-07-15T14:51:58.649Z,7.30
2017-07-15T14:54:26.999Z,8.83
2017-07-15T14:56:55.332Z,2.50
2017-07-15T14:59:24.198Z,2.70
2017-07-15T15:01:52.559Z,1.90
2017-07-15T15:04:21.654Z,2.10
2017-07-15T15:06:51.210Z,3.60
2017-07-15T15:09:19.550Z,2.20
2017-07-15T15:11:47.885Z,1.30
2017-07-15T15:14:16.734Z,5.43
2017-07-15T15:16:45.090Z,2.10
2017-07-15T15:19:14.209Z,2.40
2017-07-15T15:21:42.999Z,2.23
2017-07-15T15:24:11.354Z,1.90
2017-07-15T15:26:40.453Z,2.13
2017-07-15T15:29:09.972Z,1.80
2017-07-15T15:31:38.291Z,1.70
2017-07-15T15:34:06.623Z,1.93
2017-07-15T15:36:35.506Z,1.87
2017-07-15T15:39:03.839Z,2.73
2017-07-15T15:41:32.201Z,2.40
2017-07-15T15:44:00.862Z,2.40
2017-07-15T15:46:29.221Z,2.90
2017-07-15T15:48:57.553Z,2.13
2017-07-15T15:51:26.328Z,2.20
2017-07-15T15:53:54.669Z,1.97
2017-07-15T15:56:23.008Z,3.30
2017-07-15T15:58:51.628Z,3.13
2017-07-15T16:01:19.968Z,2.13
2017-07-15T16:03:48.302Z,1.63
2017-07-15T16:06:17.084Z,4.97
2017-07-15T16:08:45.465Z,3.23
2017-07-15T16:11:13.808Z,3.30
2017-07-15T16:13:42.581Z,3.53
2017-07-15T16:16:10.939Z,3.33
2017-07-15T16:18:39.266Z,1.40
2017-07-15T16:21:07.992Z,1.93
2017-07-15T16:23:36.322Z,1.87
2017-07-15T16:26:04.662Z,1.80
2017-07-15T16:28:33.440Z,4.17
2017-07-15T16:31:01.771Z,3.73
2017-07-15T16:33:30.125Z,4.80
2017-07-15T16:35:59.497Z,6.83
2017-07-15T16:38:27.809Z,2.60
2017-07-15T16:40:56.159Z,6.10
2017-07-15T16:43:24.786Z,10.13
2017-07-15T16:45:53.117Z,1.87
2017-07-15T16:48:21.451Z,5.30
2017-07-15T16:50:50.387Z,1.70
2017-07-15T16:53:18.735Z,5.53
2017-07-15T16:55:47.343Z,2.43
2017-07-15T16:58:16.228Z,3.87
2017-07-15T17:00:44.582Z,4.40
2017-07-15T17:03:12.918Z,2.50
2017-07-15T17:05:41.587Z,4.90
2017-07-15T17:08:09.918Z,2.97
2017-07-15T17:10:38.268Z,6.60
2017-07-15T17:13:06.924Z,6.27
2017-07-15T17:15:35.283Z,4.10
2017-07-15T17:18:04.379Z,5.07
2017-07-15T17:20:34.120Z,1.83
2017-07-15T17:23:02.456Z,4.10
2017-07-15T17:25:30.829Z,3.07
2017-07-15T17:27:59.644Z,2.30
2017-07-15T17:30:27.976Z,5.60
2017-07-15T17:32:56.316Z,2.73
2017-07-15T17:35:24.985Z,4.00
2017-07-15T17:37:54.113Z,4.83
2017-07-15T17:40:22.444Z,3.33
2017-07-15T17:42:51.395Z,3.57
2017-07-15T17:45:19.749Z,2.50
2017-07-15T17:47:48.111Z,6.07
2017-07-15T17:50:16.814Z,4.23
2017-07-15T17:52:45.162Z,8.80
2017-07-15T17:55:14.276Z,5.53
2017-07-15T17:57:44.296Z,2.73
2017-07-15T18:00:12.618Z,4.77
2017-07-15T18:02:40.955Z,2.73
2017-07-15T18:05:09.748Z,5.07
2017-07-15T18:07:38.108Z,2.93
2017-07-15T18:10:07.226Z,2.80
2017-07-15T18:12:36.005Z,5.67
2017-07-15T18:15:04.364Z,3.20
2017-07-15T18:17:32.695Z,2.80
2017-07-15T18:20:01.440Z,6.50
2017-07-15T18:22:29.803Z,6.53
2017-07-15T18:24:58.170Z,3.10
2017-07-15T18:27:27.093Z,4.17
2017-07-15T18:29:55.425Z,3.53
2017-07-15T18:32:23.758Z,3.50
2017-07-15T18:34:52.427Z,3.90
2017-07-15T18:37:21.523Z,6.23
2017-07-15T18:39:50.643Z,5.07
2017-07-15T18:42:19.305Z,5.60
2017-07-15T18:44:48.414Z,5.33
2017-07-15T18:47:16.777Z,11.67
2017-07-15T18:49:45.484Z,7.93
2017-07-15T18:52:13.821Z,4.80
2017-07-15T18:54:42.185Z,4.60
2017-07-15T18:57:10.942Z,6.30
2017-07-15T18:59:39.287Z,4.40
2017-07-15T19:02:07.636Z,3.77
2017-07-15T19:04:36.296Z,8.90
2017-07-15T19:07:04.641Z,7.00
2017-07-15T19:09:33.001Z,11.70
2017-07-15T19:12:02.035Z,10.20
2017-07-15T19:14:30.375Z,5.83
2017-07-15T19:16:58.722Z,4.77
2017-07-15T19:19:27.370Z,7.70
2017-07-15T19:21:56.483Z,4.53
2017-07-15T19:24:24.845Z,12.87
2017-07-15T19:26:53.485Z,8.33
2017-07-15T19:29:21.816Z,7.83
2017-07-15T19:31:50.150Z,4.43
2017-07-15T19:34:19.168Z,10.00
2017-07-15T19:36:47.499Z,9.20
2017-07-15T19:39:15.841Z,17.03
2017-07-15T19:41:44.474Z,8.17
2017-07-15T19:44:12.823Z,9.40
2017-07-15T19:46:41.160Z,9.60
2017-07-15T19:49:10.077Z,10.50
2017-07-15T19:51:38.402Z,8.20
2017-07-15T19:54:06.724Z,9.00
2017-07-15T19:56:35.466Z,14.90
2017-07-15T19:59:03.861Z,17.67
2017-07-15T20:01:32.195Z,22.13
2017-07-15T20:04:00.842Z,13.80
2017-07-15T20:06:29.950Z,6.27
2017-07-15T20:08:59.067Z,9.13
2017-07-15T20:11:27.833Z,6.70
2017-07-15T20:13:56.150Z,6.90
2017-07-15T20:16:24.504Z,9.80
2017-07-15T20:18:53.355Z,9.00
2017-07-15T20:21:21.681Z,14.57
2017-07-15T20:23:50.029Z,21.70
2017-07-15T20:26:18.969Z,12.47
2017-07-15T20:28:47.309Z,14.13
2017-07-15T20:31:15.672Z,9.37
2017-07-15T20:33:44.319Z,11.97
2017-07-15T20:36:18.234Z,7.30
2017-07-15T20:38:47.280Z,15.03
2017-07-15T20:41:15.617Z,13.10
2017-07-15T20:43:43.965Z,21.23
2017-07-15T20:46:12.622Z,35.17
2017-07-15T20:48:40.957Z,29.97
2017-07-15T20:51:09.309Z,25.17
2017-07-15T20:53:43.558Z,22.10
2017-07-15T20:56:11.891Z,12.93
2017-07-15T20:58:40.215Z,22.10
2017-07-15T21:01:09.110Z,20.80
2017-07-15T21:03:37.458Z,11.73
2017-07-15T21:06:05.794Z,10.00
2017-07-15T21:08:35.210Z,13.70
2017-07-15T21:11:03.545Z,13.90
2017-07-15T21:13:31.898Z,13.40
2017-07-15T21:16:00.686Z,15.63
2017-07-15T21:18:29.050Z,15.17
2017-07-15T21:20:57.372Z,12.47
2017-07-15T21:23:26.305Z,15.87
2017-07-15T21:25:54.650Z,12.93
2017-07-15T21:28:23.018Z,13.10
2017-07-15T21:30:51.747Z,15.27
2017-07-15T21:33:20.088Z,19.87
2017-07-15T21:35:48.429Z,10.53
2017-07-15T21:38:17.188Z,16.10
2017-07-15T21:40:45.521Z,12.27
2017-07-15T21:43:13.874Z,27.43
2017-07-15T21:45:42.555Z,16.27
2017-07-15T21:48:10.897Z,14.50
2017-07-15T21:50:39.224Z,10.70
2017-07-15T21:53:08.078Z,14.80
2017-07-15T21:55:36.451Z,10.03
2017-07-15T21:58:04.802Z,13.47
2017-07-15T22:00:33.446Z,10.60
2017-07-15T22:03:01.790Z,10.80
2017-07-15T22:05:30.163Z,14.80
2017-07-15T22:07:58.838Z,22.63
2017-07-15T22:10:27.170Z,14.07
2017-07-15T22:12:55.508Z,7.80
2017-07-15T22:15:24.286Z,13.87
2017-07-15T22:17:52.623Z,11.40
2017-07-15T22:20:20.956Z,12.77
2017-07-15T22:22:49.651Z,17.40
2017-07-15T22:25:17.974Z,10.17
2017-07-15T22:27:46.307Z,11.47
2017-07-15T22:30:15.322Z,11.20
2017-07-15T22:32:43.671Z,11.00
2017-07-15T22:35:12.794Z,13.50
2017-07-15T22:37:41.565Z,9.77
2017-07-15T22:40:09.914Z,12.13
2017-07-15T22:42:38.269Z,20.33
2017-07-15T22:45:06.963Z,13.93
2017-07-15T22:47:35.295Z,11.50
2017-07-15T22:50:03.612Z,11.33
2017-07-15T22:52:32.656Z,17.83
2017-07-15T22:55:00.982Z,9.60
2017-07-15T22:57:29.307Z,12.73
2017-07-15T22:59:58.008Z,12.63
2017-07-15T23:02:26.357Z,9.17
2017-07-15T23:04:54.691Z,12.97
2017-07-15T23:07:23.302Z,13.20
2017-07-15T23:09:51.649Z,13.10
2017-07-15T23:12:19.980Z,10.37
2017-07-15T23:14:49.320Z,9.37
2017-07-15T23:17:17.743Z,15.53
2017-07-15T23:19:46.076Z,13.37
2017-07-15T23:22:14.805Z,20.83
2017-07-15T23:24:43.134Z,15.33
2017-07-15T23:27:11.461Z,30.83
2017-07-15T23:29:40.122Z,10.07
2017-07-15T23:32:08.459Z,13.83
2017-07-15T23:34:37.582Z,20.73
2017-07-15T23:37:06.567Z,9.77
2017-07-15T23:39:34.884Z,11.50
2017-07-15T23:42:03.216Z,13.30
2017-07-15T23:44:32.823Z,12.20
2017-07-15T23:47:01.143Z,13.33
2017-07-15T23:49:29.471Z,15.53
2017-07-15T23:51:58.903Z,13.00
2017-07-15T23:54:27.247Z,20.57
2017-07-15T23:56:56.378Z,14.30
2017-07-15T23:59:25.352Z,15.20
